createdAt,value
2018-07-22T00:04:05.301Z,21.30
2018-07-22T00:06:34.343Z,21.30
2018-07-22T00:09:02.447Z,21.30
2018-07-22T00:11:30.625Z,21.30
2018-07-22T00:13:59.401Z,21.30
2018-07-22T00:16:27.517Z,21.20
2018-07-22T00:18:55.798Z,21.20
2018-07-22T00:21:23.958Z,21.20
2018-07-22T00:23:52.227Z,21.20
2018-07-22T00:26:21.746Z,21.20
2018-07-22T00:28:50.428Z,21.10
2018-07-22T00:31:18.608Z,21.10
2018-07-22T00:33:46.788Z,21.10
2018-07-22T00:36:15.028Z,21.10
2018-07-22T00:38:43.594Z,21.10
2018-07-22T00:41:11.760Z,21.10
2018-07-22T00:43:39.868Z,21.10
2018-07-22T00:46:07.964Z,21.00
2018-07-22T00:48:36.210Z,21.00
2018-07-22T00:51:04.510Z,21.00
2018-07-22T00:53:32.786Z,21.00
2018-07-22T00:56:01.588Z,21.00
2018-07-22T00:58:29.727Z,21.00
2018-07-22T01:00:58.386Z,20.90
2018-07-22T01:03:26.726Z,20.90
2018-07-22T01:05:55.926Z,20.90
2018-07-22T01:08:24.168Z,20.80
2018-07-22T01:10:52.386Z,20.80
2018-07-22T01:13:20.586Z,20.80
2018-07-22T01:15:48.758Z,20.80
2018-07-22T01:20:46.181Z,20.70
2018-07-22T01:23:14.314Z,20.70
2018-07-22T01:25:42.618Z,20.70
2018-07-22T01:28:10.767Z,20.70
2018-07-22T01:30:38.995Z,20.70
2018-07-22T01:33:07.247Z,20.60
2018-07-22T01:35:35.392Z,20.60
2018-07-22T01:38:03.498Z,20.60
2018-07-22T01:40:31.818Z,20.50
2018-07-22T01:43:00.706Z,20.60
2018-07-22T01:45:28.862Z,20.50
2018-07-22T01:47:57.212Z,20.50
2018-07-22T01:50:25.390Z,20.50
2018-07-22T01:52:53.610Z,20.40
2018-07-22T01:55:21.938Z,20.40
2018-07-22T01:57:50.112Z,20.30
2018-07-22T02:00:18.304Z,20.20
2018-07-22T02:02:47.322Z,20.20
2018-07-22T02:05:16.994Z,20.10
2018-07-22T02:07:45.181Z,20.00
2018-07-22T02:10:13.281Z,19.90
2018-07-22T02:12:41.423Z,19.80
2018-07-22T02:15:09.587Z,19.80
2018-07-22T02:17:37.904Z,19.70
2018-07-22T02:20:06.137Z,19.70
2018-07-22T02:22:34.326Z,19.60
2018-07-22T02:25:02.708Z,19.60
2018-07-22T02:27:30.875Z,19.60
2018-07-22T02:29:59.039Z,19.60
2018-07-22T02:32:27.264Z,19.60
2018-07-22T02:34:56.359Z,19.50
2018-07-22T02:37:24.480Z,19.50
2018-07-22T02:39:52.728Z,19.40
2018-07-22T02:42:20.919Z,19.40
2018-07-22T02:44:49.152Z,19.40
2018-07-22T02:47:17.314Z,19.30
2018-07-22T02:49:45.442Z,19.30
2018-07-22T02:52:13.604Z,19.30
2018-07-22T02:54:42.525Z,19.30
2018-07-22T02:57:10.827Z,19.30
2018-07-22T02:59:38.929Z,19.30
2018-07-22T03:02:07.132Z,19.30
2018-07-22T03:04:35.311Z,19.30
2018-07-22T03:07:03.509Z,19.30
2018-07-22T03:09:31.619Z,19.20
2018-07-22T03:12:01.060Z,19.20
2018-07-22T03:14:29.231Z,19.20
2018-07-22T03:16:57.383Z,19.20
2018-07-22T03:19:25.566Z,19.20
2018-07-22T03:21:53.715Z,19.30
2018-07-22T03:24:22.713Z,19.30
2018-07-22T03:26:50.889Z,19.30
2018-07-22T03:29:19.081Z,19.40
2018-07-22T03:31:48.937Z,19.40
2018-07-22T03:34:17.112Z,19.50
2018-07-22T03:36:45.795Z,19.50
2018-07-22T03:39:15.167Z,19.60
2018-07-22T03:41:43.316Z,19.60
2018-07-22T03:44:11.626Z,19.70
2018-07-22T03:46:39.791Z,19.70
2018-07-22T03:49:08.042Z,19.80
2018-07-22T03:51:36.250Z,19.80
2018-07-22T03:54:04.582Z,19.80
2018-07-22T03:56:32.700Z,19.90
2018-07-22T03:59:02.031Z,19.90
2018-07-22T04:01:31.407Z,20.00
2018-07-22T04:03:59.721Z,20.00
2018-07-22T04:06:27.920Z,20.10
2018-07-22T04:08:56.818Z,20.20
2018-07-22T04:11:25.082Z,20.20
2018-07-22T04:13:53.227Z,20.30
2018-07-22T04:16:21.554Z,20.40
2018-07-22T04:18:53.056Z,20.50
2018-07-22T04:21:23.137Z,20.50
2018-07-22T04:23:53.041Z,20.60
2018-07-22T04:26:21.980Z,20.60
2018-07-22T04:28:51.004Z,20.70
2018-07-22T04:31:19.134Z,20.70
2018-07-22T04:33:47.348Z,20.80
2018-07-22T04:36:15.488Z,20.90
2018-07-22T04:38:43.684Z,20.90
2018-07-22T04:41:11.838Z,21.00
2018-07-22T04:43:40.242Z,21.00
2018-07-22T04:46:08.432Z,21.10
2018-07-22T04:48:36.624Z,21.20
2018-07-22T04:51:05.590Z,21.20
2018-07-22T04:53:33.809Z,21.30
2018-07-22T04:56:02.216Z,21.30
2018-07-22T04:58:30.692Z,21.40
2018-07-22T05:00:59.516Z,21.40
2018-07-22T05:03:27.834Z,21.50
2018-07-22T05:05:56.060Z,21.60
2018-07-22T05:08:24.236Z,21.60
2018-07-22T05:10:54.970Z,21.70
2018-07-22T05:13:23.121Z,21.90
2018-07-22T05:15:51.252Z,22.00
2018-07-22T05:18:19.684Z,22.00
2018-07-22T05:20:48.689Z,22.10
2018-07-22T05:25:44.996Z,22.20
2018-07-22T05:28:13.165Z,22.30
2018-07-22T05:30:41.524Z,22.30
2018-07-22T05:33:10.266Z,22.40
2018-07-22T05:35:38.444Z,22.50
2018-07-22T05:38:06.610Z,22.50
2018-07-22T05:40:34.752Z,22.60
2018-07-22T05:43:02.907Z,22.60
2018-07-22T05:45:32.186Z,22.60
2018-07-22T05:48:00.437Z,22.70
2018-07-22T05:50:28.661Z,22.70
2018-07-22T05:52:56.814Z,22.80
2018-07-22T05:55:25.182Z,22.90
2018-07-22T05:57:53.402Z,23.10
2018-07-22T06:00:21.754Z,23.20
2018-07-22T06:02:49.933Z,23.30
2018-07-22T06:05:18.204Z,23.40
2018-07-22T06:07:46.376Z,23.50
2018-07-22T06:12:42.412Z,23.50
2018-07-22T06:15:10.792Z,23.50
2018-07-22T06:17:38.951Z,23.70
2018-07-22T06:20:07.705Z,23.70
2018-07-22T06:22:35.985Z,23.80
2018-07-22T06:25:04.577Z,24.00
2018-07-22T06:27:32.695Z,24.10
2018-07-22T06:30:00.861Z,24.10
2018-07-22T06:32:29.093Z,24.30
2018-07-22T06:34:57.215Z,24.40
2018-07-22T06:37:25.450Z,24.40
2018-07-22T06:42:21.593Z,24.60
2018-07-22T06:44:49.793Z,24.70
2018-07-22T06:47:17.987Z,24.80
2018-07-22T06:49:46.147Z,24.90
2018-07-22T06:52:14.315Z,24.90
2018-07-22T06:54:42.565Z,24.90
2018-07-22T06:57:10.671Z,25.00
2018-07-22T06:59:38.956Z,25.10
2018-07-22T07:02:07.117Z,25.30
2018-07-22T07:07:03.332Z,25.50
2018-07-22T07:09:31.555Z,25.60
2018-07-22T07:11:59.911Z,25.90
2018-07-22T07:14:28.086Z,26.20
2018-07-22T07:16:56.275Z,26.50
2018-07-22T07:19:24.644Z,26.70
2018-07-22T07:21:52.822Z,26.90
2018-07-22T07:24:20.959Z,27.00
2018-07-22T07:26:49.220Z,27.10
2018-07-22T07:29:17.349Z,27.10
2018-07-22T07:31:46.040Z,27.10
2018-07-22T07:34:14.213Z,27.20
2018-07-22T07:36:42.948Z,27.20
2018-07-22T07:39:12.600Z,27.30
2018-07-22T07:41:41.180Z,27.40
2018-07-22T07:44:09.995Z,27.40
2018-07-22T07:46:38.247Z,27.60
2018-07-22T07:49:06.562Z,27.80
2018-07-22T07:51:34.936Z,28.00
2018-07-22T07:54:03.169Z,28.10
2018-07-22T07:56:31.430Z,28.30
2018-07-22T07:58:59.590Z,28.50
2018-07-22T08:01:27.742Z,28.60
2018-07-22T08:03:55.918Z,28.60
2018-07-22T08:06:24.198Z,28.60
2018-07-22T08:08:52.316Z,28.60
2018-07-22T08:11:20.521Z,28.50
2018-07-22T08:18:44.648Z,28.00
2018-07-22T08:23:41.060Z,28.10
2018-07-22T08:26:09.509Z,28.30
2018-07-22T08:28:49.183Z,28.50
2018-07-22T08:31:17.388Z,28.60
2018-07-22T08:33:45.706Z,28.80
2018-07-22T08:41:09.806Z,29.00
2018-07-22T08:43:37.966Z,28.80
2018-07-22T08:46:07.341Z,28.80
2018-07-22T08:48:35.808Z,28.80
2018-07-22T08:53:32.053Z,28.80
2018-07-22T08:58:28.183Z,28.90
2018-07-22T09:00:56.335Z,29.00
2018-07-22T09:03:24.465Z,29.20
2018-07-22T09:08:20.688Z,29.40
2018-07-22T09:10:48.801Z,29.60
2018-07-22T09:13:16.958Z,29.80
2018-07-22T09:15:45.097Z,29.90
2018-07-22T09:18:13.260Z,30.00
2018-07-22T09:20:41.375Z,30.10
2018-07-22T09:23:09.605Z,30.40
2018-07-22T09:25:38.600Z,30.40
2018-07-22T09:28:06.833Z,30.30
2018-07-22T09:30:35.041Z,30.20
2018-07-22T09:33:03.239Z,30.10
2018-07-22T09:35:31.361Z,30.00
2018-07-22T09:37:59.567Z,30.10
2018-07-22T09:40:27.996Z,30.20
2018-07-22T09:42:56.292Z,30.40
2018-07-22T09:45:24.539Z,30.40
2018-07-22T09:47:52.677Z,30.40
2018-07-22T09:50:20.953Z,30.30
2018-07-22T09:52:49.239Z,30.30
2018-07-22T09:55:17.468Z,30.30
2018-07-22T09:57:46.155Z,30.20
2018-07-22T10:00:18.626Z,30.10
2018-07-22T10:02:48.295Z,30.00
2018-07-22T10:05:16.759Z,30.00
2018-07-22T10:07:45.027Z,30.10
2018-07-22T10:10:14.763Z,30.40
2018-07-22T10:12:45.187Z,30.60
2018-07-22T10:15:13.387Z,30.80
2018-07-22T10:17:43.122Z,31.10
2018-07-22T10:20:12.729Z,31.20
2018-07-22T10:22:41.191Z,31.30
2018-07-22T10:25:09.613Z,31.50
2018-07-22T10:27:37.791Z,31.50
2018-07-22T10:30:07.008Z,31.50
2018-07-22T10:32:35.811Z,31.50
2018-07-22T10:35:04.031Z,31.50
2018-07-22T10:37:32.195Z,31.50
2018-07-22T10:40:00.281Z,31.70
2018-07-22T10:42:28.503Z,31.80
2018-07-22T10:44:56.743Z,31.90
2018-07-22T10:47:25.009Z,31.80
2018-07-22T10:49:53.433Z,31.90
2018-07-22T10:54:49.575Z,31.80
2018-07-22T10:59:45.846Z,31.90
2018-07-22T11:02:14.714Z,31.90
2018-07-22T11:04:43.144Z,31.80
2018-07-22T11:07:11.302Z,31.60
2018-07-22T11:09:39.692Z,31.60
2018-07-22T11:12:08.387Z,31.90
2018-07-22T11:14:36.819Z,31.80
2018-07-22T11:17:06.911Z,31.80
2018-07-22T11:19:35.193Z,31.90
2018-07-22T11:22:03.444Z,31.90
2018-07-22T11:24:31.659Z,31.80
2018-07-22T11:26:59.896Z,31.80
2018-07-22T11:29:28.113Z,31.80
2018-07-22T11:31:56.405Z,31.50
2018-07-22T11:34:24.565Z,31.50
2018-07-22T11:36:52.966Z,31.70
2018-07-22T11:39:21.218Z,31.70
2018-07-22T11:41:49.499Z,31.90
2018-07-22T11:44:17.642Z,31.90
2018-07-22T11:46:46.336Z,32.00
2018-07-22T11:51:42.441Z,32.00
2018-07-22T11:54:10.672Z,31.90
2018-07-22T11:59:07.583Z,32.00
2018-07-22T12:01:35.861Z,32.00
2018-07-22T12:04:04.100Z,31.90
2018-07-22T12:06:32.451Z,31.80
2018-07-22T12:09:01.419Z,31.70
2018-07-22T12:11:29.585Z,31.60
2018-07-22T12:13:57.795Z,31.30
2018-07-22T12:16:26.096Z,31.10
2018-07-22T12:18:55.643Z,30.90
2018-07-22T12:21:24.392Z,30.70
2018-07-22T12:23:52.581Z,30.70
2018-07-22T12:26:20.745Z,30.70
2018-07-22T12:28:49.083Z,30.70
2018-07-22T12:31:17.343Z,30.70
2018-07-22T12:36:13.995Z,30.80
2018-07-22T12:38:42.262Z,30.90
2018-07-22T12:41:10.563Z,31.00
2018-07-22T12:43:38.878Z,31.10
2018-07-22T12:46:07.086Z,31.20
2018-07-22T12:48:35.647Z,31.20
2018-07-22T12:51:03.820Z,31.20
2018-07-22T12:53:31.964Z,31.20
2018-07-22T12:56:00.116Z,31.30
2018-07-22T12:58:28.262Z,31.50
2018-07-22T13:00:56.543Z,31.60
2018-07-22T13:03:24.808Z,31.60
2018-07-22T13:05:53.059Z,31.70
2018-07-22T13:10:49.483Z,31.70
2018-07-22T13:13:17.643Z,31.70
2018-07-22T13:15:45.826Z,31.60
2018-07-22T13:18:14.021Z,31.50
2018-07-22T13:20:42.164Z,31.50
2018-07-22T13:23:10.469Z,31.40
2018-07-22T13:25:38.589Z,31.30
2018-07-22T13:28:06.893Z,31.10
2018-07-22T13:30:35.029Z,30.90
2018-07-22T13:33:03.202Z,30.60
2018-07-22T13:35:31.337Z,30.40
2018-07-22T13:37:59.529Z,30.30
2018-07-22T13:40:27.717Z,30.30
2018-07-22T13:42:55.981Z,30.40
2018-07-22T13:45:24.479Z,30.70
2018-07-22T13:47:52.589Z,31.10
2018-07-22T13:50:20.795Z,31.40
2018-07-22T13:55:21.256Z,31.80
2018-07-22T13:57:49.450Z,32.10
2018-07-22T14:00:17.685Z,32.30
2018-07-22T14:02:45.795Z,32.40
2018-07-22T14:05:13.942Z,31.90
2018-07-22T14:07:42.166Z,31.60
2018-07-22T14:10:10.536Z,31.30
2018-07-22T14:12:38.781Z,31.10
2018-07-22T14:15:07.102Z,30.70
2018-07-22T14:17:35.391Z,30.60
2018-07-22T14:20:03.898Z,30.50
2018-07-22T14:22:32.143Z,30.30
2018-07-22T14:25:00.303Z,30.20
2018-07-22T14:27:28.439Z,30.10
2018-07-22T14:29:56.655Z,30.20
2018-07-22T14:32:24.805Z,30.10
2018-07-22T14:34:53.011Z,30.10
2018-07-22T14:37:21.200Z,30.10
2018-07-22T14:39:49.874Z,30.10
2018-07-22T14:42:18.118Z,30.20
2018-07-22T14:44:46.860Z,30.20
2018-07-22T14:47:15.172Z,30.10
2018-07-22T14:49:43.358Z,30.00
2018-07-22T14:52:12.413Z,29.90
2018-07-22T14:54:40.624Z,29.90
2018-07-22T14:57:08.802Z,30.00
2018-07-22T14:59:37.134Z,30.10
2018-07-22T15:02:05.511Z,30.30
2018-07-22T15:04:33.761Z,30.30
2018-07-22T15:07:02.957Z,30.20
2018-07-22T15:09:31.103Z,30.20
2018-07-22T15:11:59.401Z,30.10
2018-07-22T15:14:27.522Z,29.90
2018-07-22T15:16:55.721Z,29.70
2018-07-22T15:19:23.872Z,29.60
2018-07-22T15:21:52.049Z,29.50
2018-07-22T15:24:20.416Z,29.40
2018-07-22T15:26:48.657Z,29.50
2018-07-22T15:31:45.961Z,29.50
2018-07-22T15:34:14.121Z,29.50
2018-07-22T15:39:11.727Z,29.50
2018-07-22T15:41:40.151Z,29.50
2018-07-22T15:44:08.270Z,29.50
2018-07-22T15:49:05.026Z,29.50
2018-07-22T15:51:33.216Z,29.50
2018-07-22T15:56:29.415Z,29.40
2018-07-22T15:58:58.138Z,29.40
2018-07-22T16:01:27.686Z,29.30
2018-07-22T16:03:55.846Z,29.20
2018-07-22T16:08:51.985Z,29.20
2018-07-22T16:11:20.122Z,29.20
2018-07-22T16:13:48.649Z,29.20
2018-07-22T16:18:45.177Z,29.20
2018-07-22T16:21:13.494Z,29.30
2018-07-22T16:23:41.658Z,29.30
2018-07-22T16:26:09.884Z,29.30
2018-07-22T16:28:38.119Z,29.30
2018-07-22T16:33:34.510Z,29.30
2018-07-22T16:36:04.055Z,29.30
2018-07-22T16:38:32.205Z,29.40
2018-07-22T16:43:28.848Z,29.50
2018-07-22T16:48:25.224Z,29.40
2018-07-22T16:50:53.370Z,29.30
2018-07-22T16:55:49.913Z,29.10
2018-07-22T16:58:18.199Z,28.90
2018-07-22T17:00:46.370Z,28.70
2018-07-22T17:03:14.583Z,28.50
2018-07-22T17:05:42.757Z,28.50
2018-07-22T17:08:11.007Z,28.40
2018-07-22T17:10:39.450Z,28.40
2018-07-22T17:13:07.588Z,28.30
2018-07-22T17:15:35.845Z,28.10
2018-07-22T17:18:04.099Z,28.10
2018-07-22T17:20:32.521Z,28.00
2018-07-22T17:25:28.955Z,28.10
2018-07-22T17:27:57.152Z,28.20
2018-07-22T17:30:25.387Z,28.20
2018-07-22T17:32:53.687Z,28.30
2018-07-22T17:35:22.133Z,28.30
2018-07-22T17:37:51.415Z,28.40
2018-07-22T17:40:19.602Z,28.40
2018-07-22T17:42:47.954Z,28.40
2018-07-22T17:45:16.122Z,28.40
2018-07-22T17:47:44.418Z,28.30
2018-07-22T17:50:13.520Z,28.20
2018-07-22T17:52:41.683Z,28.10
2018-07-22T17:55:09.841Z,28.00
2018-07-22T17:57:38.075Z,27.90
2018-07-22T18:00:06.653Z,27.80
2018-07-22T18:02:35.165Z,27.70
2018-07-22T18:05:03.501Z,27.50
2018-07-22T18:07:31.872Z,27.40
2018-07-22T18:10:01.385Z,27.30
2018-07-22T18:12:29.690Z,27.20
2018-07-22T18:14:58.805Z,27.10
2018-07-22T18:17:27.089Z,27.00
2018-07-22T18:19:55.227Z,26.90
2018-07-22T18:22:23.491Z,26.90
2018-07-22T18:24:51.754Z,26.80
2018-07-22T18:27:19.940Z,26.80
2018-07-22T18:29:48.126Z,26.60
2018-07-22T18:32:16.282Z,26.50
2018-07-22T18:34:44.619Z,26.40
2018-07-22T18:37:12.957Z,26.30
2018-07-22T18:39:41.120Z,26.20
2018-07-22T18:42:09.843Z,26.10
2018-07-22T18:44:38.391Z,26.10
2018-07-22T18:47:07.209Z,25.90
2018-07-22T18:49:35.390Z,25.80
2018-07-22T18:52:03.687Z,25.80
2018-07-22T18:54:31.912Z,25.70
2018-07-22T18:57:00.118Z,25.60
2018-07-22T18:59:29.036Z,25.60
2018-07-22T19:01:57.727Z,25.50
2018-07-22T19:04:26.309Z,25.60
2018-07-22T19:06:54.893Z,25.50
2018-07-22T19:09:23.074Z,25.50
2018-07-22T19:11:51.300Z,25.60
2018-07-22T19:14:19.848Z,25.50
2018-07-22T19:16:48.033Z,25.40
2018-07-22T19:19:16.180Z,25.40
2018-07-22T19:21:44.478Z,25.40
2018-07-22T19:24:12.654Z,25.30
2018-07-22T19:26:40.839Z,25.20
2018-07-22T19:29:09.020Z,25.20
2018-07-22T19:31:37.816Z,25.20
2018-07-22T19:34:06.468Z,25.20
2018-07-22T19:36:34.756Z,25.10
2018-07-22T19:39:02.946Z,25.10
2018-07-22T19:41:31.097Z,25.00
2018-07-22T19:43:59.284Z,24.90
2018-07-22T19:46:27.445Z,24.90
2018-07-22T19:48:55.670Z,24.80
2018-07-22T19:51:24.072Z,24.70
2018-07-22T19:53:52.268Z,24.70
2018-07-22T19:56:20.701Z,24.60
2018-07-22T19:58:48.954Z,24.50
2018-07-22T20:06:14.608Z,24.30
2018-07-22T20:08:42.976Z,24.20
2018-07-22T20:11:11.175Z,24.10
2018-07-22T20:13:39.520Z,24.10
2018-07-22T20:16:07.698Z,24.10
2018-07-22T20:18:35.874Z,24.00
2018-07-22T20:21:04.090Z,23.90
2018-07-22T20:23:32.355Z,23.90
2018-07-22T20:26:00.671Z,23.80
2018-07-22T20:28:28.980Z,23.70
2018-07-22T20:30:57.119Z,23.70
2018-07-22T20:33:25.355Z,23.60
2018-07-22T20:35:53.607Z,23.60
2018-07-22T20:38:21.773Z,23.50
2018-07-22T20:40:49.987Z,23.50
2018-07-22T20:43:18.261Z,23.50
2018-07-22T20:45:46.397Z,23.40
2018-07-22T20:50:42.717Z,23.40
2018-07-22T20:53:10.834Z,23.30
2018-07-22T20:58:06.962Z,23.20
2018-07-22T21:00:35.147Z,23.20
2018-07-22T21:03:03.386Z,23.20
2018-07-22T21:05:31.660Z,23.10
2018-07-22T21:07:59.800Z,23.10
2018-07-22T21:13:07.853Z,23.00
2018-07-22T21:15:36.200Z,23.00
2018-07-22T21:20:32.342Z,22.90
2018-07-22T21:23:00.617Z,22.90
2018-07-22T21:25:28.827Z,22.80
2018-07-22T21:27:57.048Z,22.80
2018-07-22T21:30:25.258Z,22.70
2018-07-22T21:32:53.424Z,22.70
2018-07-22T21:35:23.198Z,22.60
2018-07-22T21:37:51.440Z,22.60
2018-07-22T21:40:19.737Z,22.50
2018-07-22T21:42:47.938Z,22.40
2018-07-22T21:45:16.195Z,22.40
2018-07-22T21:47:44.610Z,22.30
2018-07-22T21:50:12.768Z,22.30
2018-07-22T21:52:41.175Z,22.30
2018-07-22T21:55:09.575Z,22.30
2018-07-22T21:57:38.078Z,22.30
2018-07-22T22:00:14.786Z,22.30
2018-07-22T22:05:11.087Z,22.30
2018-07-22T22:07:39.314Z,22.30
2018-07-22T22:10:07.497Z,22.30
2018-07-22T22:12:35.703Z,22.20
2018-07-22T22:15:08.869Z,22.20
2018-07-22T22:17:37.060Z,22.10
2018-07-22T22:20:06.015Z,22.20
2018-07-22T22:22:34.312Z,22.20
2018-07-22T22:25:02.487Z,22.20
2018-07-22T22:27:30.709Z,22.10
2018-07-22T22:29:58.858Z,22.10
2018-07-22T22:32:27.805Z,22.10
2018-07-22T22:34:56.059Z,22.10
2018-07-22T22:37:24.414Z,22.10
2018-07-22T22:39:52.579Z,22.00
2018-07-22T22:42:20.789Z,22.00
2018-07-22T22:44:49.078Z,22.00
2018-07-22T22:47:17.259Z,22.00
2018-07-22T22:49:45.470Z,22.00
2018-07-22T22:52:13.590Z,21.90
2018-07-22T22:54:41.763Z,21.90
2018-07-22T22:57:09.877Z,21.90
2018-07-22T22:59:38.014Z,21.80
2018-07-22T23:02:06.386Z,21.80
2018-07-22T23:04:34.508Z,21.80
2018-07-22T23:07:02.926Z,21.70
2018-07-22T23:09:31.227Z,21.70
2018-07-22T23:11:59.342Z,21.70
2018-07-22T23:14:27.544Z,21.60
2018-07-22T23:16:55.778Z,21.60
2018-07-22T23:19:24.161Z,21.50
2018-07-22T23:21:52.399Z,21.50
2018-07-22T23:24:20.771Z,21.40
2018-07-22T23:26:48.931Z,21.40
2018-07-22T23:29:17.062Z,21.40
2018-07-22T23:31:46.038Z,21.40
2018-07-22T23:34:14.172Z,21.40
2018-07-22T23:36:42.312Z,21.30
2018-07-22T23:39:10.986Z,21.30
2018-07-22T23:41:39.308Z,21.30
2018-07-22T23:44:07.872Z,21.20
2018-07-22T23:46:36.125Z,21.20
2018-07-22T23:49:04.239Z,21.10
2018-07-22T23:51:32.399Z,21.10
2018-07-22T23:54:00.493Z,21.10
2018-07-22T23:56:28.678Z,21.10
2018-07-22T23:58:56.874Z,21.10
